sensor_id;sensor_type;location;lat;lon;timestamp;P1;durP1;ratioP1;P2;durP2;ratioP2
62413;SDS011;48453;52.322;21.058;2022-09-01T00:01:02;2.70;;;0.90;;
62413;SDS011;48453;52.322;21.058;2022-09-01T00:03:26;2.90;;;0.80;;
62413;SDS011;48453;52.322;21.058;2022-09-01T00:05:51;1.70;;;0.70;;
62413;SDS011;48453;52.322;21.058;2022-09-01T00:08:18;1.90;;;0.80;;
62413;SDS011;48453;52.322;21.058;2022-09-01T00:10:41;3.30;;;0.80;;
62413;SDS011;48453;52.322;21.058;2022-09-01T00:13:04;1.50;;;0.70;;
62413;SDS011;48453;52.322;21.058;2022-09-01T00:15:28;2.80;;;0.70;;
62413;SDS011;48453;52.322;21.058;2022-09-01T00:17:51;1.90;;;0.70;;
62413;SDS011;48453;52.322;21.058;2022-09-01T00:20:14;2.30;;;0.80;;
62413;SDS011;48453;52.322;21.058;2022-09-01T00:22:41;2.40;;;0.60;;
62413;SDS011;48453;52.322;21.058;2022-09-01T00:25:07;2.00;;;0.80;;
62413;SDS011;48453;52.322;21.058;2022-09-01T00:27:30;1.30;;;0.70;;
62413;SDS011;48453;52.322;21.058;2022-09-01T00:29:53;2.00;;;0.90;;
62413;SDS011;48453;52.322;21.058;2022-09-01T00:32:15;3.40;;;0.80;;
62413;SDS011;48453;52.322;21.058;2022-09-01T00:34:38;2.20;;;0.90;;
62413;SDS011;48453;52.322;21.058;2022-09-01T00:37:03;2.30;;;1.10;;
62413;SDS011;48453;52.322;21.058;2022-09-01T00:39:26;5.00;;;3.20;;
62413;SDS011;48453;52.322;21.058;2022-09-01T00:41:49;3.00;;;1.00;;
62413;SDS011;48453;52.322;21.058;2022-09-01T00:44:15;3.60;;;1.20;;
62413;SDS011;48453;52.322;21.058;2022-09-01T00:46:47;2.00;;;0.80;;
62413;SDS011;48453;52.322;21.058;2022-09-01T00:49:26;2.10;;;0.70;;
62413;SDS011;48453;52.322;21.058;2022-09-01T00:51:53;1.90;;;0.70;;
62413;SDS011;48453;52.322;21.058;2022-09-01T00:54:23;2.00;;;0.80;;
62413;SDS011;48453;52.322;21.058;2022-09-01T00:57:08;2.10;;;0.90;;
62413;SDS011;48453;52.322;21.058;2022-09-01T00:59:32;2.10;;;0.90;;
62413;SDS011;48453;52.322;21.058;2022-09-01T01:01:57;5.10;;;1.10;;
62413;SDS011;48453;52.322;21.058;2022-09-01T01:04:22;3.00;;;0.70;;
62413;SDS011;48453;52.322;21.058;2022-09-01T01:06:47;2.00;;;0.70;;
62413;SDS011;48453;52.322;21.058;2022-09-01T01:09:20;1.40;;;0.50;;
62413;SDS011;48453;52.322;21.058;2022-09-01T01:11:46;1.80;;;0.70;;
62413;SDS011;48453;52.322;21.058;2022-09-01T01:14:13;2.80;;;0.80;;
62413;SDS011;48453;52.322;21.058;2022-09-01T01:16:38;3.30;;;1.00;;
62413;SDS011;48453;52.322;21.058;2022-09-01T01:19:05;2.20;;;0.80;;
62413;SDS011;48453;52.322;21.058;2022-09-01T01:21:49;2.60;;;0.70;;
62413;SDS011;48453;52.322;21.058;2022-09-01T01:24:32;1.80;;;0.90;;
62413;SDS011;48453;52.322;21.058;2022-09-01T01:26:55;2.40;;;1.20;;
62413;SDS011;48453;52.322;21.058;2022-09-01T01:29:21;1.70;;;0.60;;
62413;SDS011;48453;52.322;21.058;2022-09-01T01:31:45;2.40;;;0.60;;
62413;SDS011;48453;52.322;21.058;2022-09-01T01:34:14;1.30;;;0.50;;
62413;SDS011;48453;52.322;21.058;2022-09-01T01:36:39;2.40;;;0.90;;
62413;SDS011;48453;52.322;21.058;2022-09-01T01:41:27;1.30;;;0.80;;
62413;SDS011;48453;52.322;21.058;2022-09-01T01:43:51;2.00;;;0.80;;
62413;SDS011;48453;52.322;21.058;2022-09-01T01:46:14;1.70;;;0.70;;
62413;SDS011;48453;52.322;21.058;2022-09-01T01:48:40;4.30;;;0.70;;
62413;SDS011;48453;52.322;21.058;2022-09-01T01:51:03;2.20;;;0.70;;
62413;SDS011;48453;52.322;21.058;2022-09-01T01:53:29;2.70;;;0.70;;
62413;SDS011;48453;52.322;21.058;2022-09-01T01:55:55;2.30;;;0.90;;
62413;SDS011;48453;52.322;21.058;2022-09-01T01:58:22;1.50;;;0.80;;
62413;SDS011;48453;52.322;21.058;2022-09-01T02:00:47;2.10;;;0.60;;
62413;SDS011;48453;52.322;21.058;2022-09-01T02:03:14;2.90;;;0.50;;
62413;SDS011;48453;52.322;21.058;2022-09-01T02:05:41;2.00;;;0.70;;
62413;SDS011;48453;52.322;21.058;2022-09-01T02:08:06;1.50;;;0.60;;
62413;SDS011;48453;52.322;21.058;2022-09-01T02:10:35;5.60;;;1.40;;
62413;SDS011;48453;52.322;21.058;2022-09-01T02:12:58;3.00;;;0.80;;
62413;SDS011;48453;52.322;21.058;2022-09-01T02:15:25;2.40;;;1.00;;
62413;SDS011;48453;52.322;21.058;2022-09-01T02:17:51;2.10;;;1.10;;
62413;SDS011;48453;52.322;21.058;2022-09-01T02:20:14;2.20;;;1.00;;
62413;SDS011;48453;52.322;21.058;2022-09-01T02:22:40;2.00;;;0.90;;
62413;SDS011;48453;52.322;21.058;2022-09-01T02:25:06;3.10;;;1.20;;
62413;SDS011;48453;52.322;21.058;2022-09-01T02:27:29;3.10;;;0.90;;
62413;SDS011;48453;52.322;21.058;2022-09-01T02:29:55;3.30;;;0.90;;
62413;SDS011;48453;52.322;21.058;2022-09-01T02:32:20;2.30;;;1.10;;
62413;SDS011;48453;52.322;21.058;2022-09-01T02:34:45;3.50;;;1.00;;
62413;SDS011;48453;52.322;21.058;2022-09-01T02:37:15;4.70;;;1.00;;
62413;SDS011;48453;52.322;21.058;2022-09-01T02:39:37;3.20;;;0.90;;
62413;SDS011;48453;52.322;21.058;2022-09-01T02:42:00;2.50;;;1.00;;
62413;SDS011;48453;52.322;21.058;2022-09-01T02:44:23;3.30;;;1.00;;
62413;SDS011;48453;52.322;21.058;2022-09-01T02:46:46;3.20;;;1.50;;
62413;SDS011;48453;52.322;21.058;2022-09-01T02:49:19;2.90;;;1.50;;
62413;SDS011;48453;52.322;21.058;2022-09-01T02:51:44;2.00;;;1.00;;
62413;SDS011;48453;52.322;21.058;2022-09-01T02:54:06;3.40;;;1.00;;
62413;SDS011;48453;52.322;21.058;2022-09-01T02:56:29;1.70;;;0.80;;
62413;SDS011;48453;52.322;21.058;2022-09-01T02:58:52;2.40;;;1.10;;
62413;SDS011;48453;52.322;21.058;2022-09-01T03:03:47;2.70;;;1.00;;
62413;SDS011;48453;52.322;21.058;2022-09-01T03:06:12;3.30;;;1.00;;
62413;SDS011;48453;52.322;21.058;2022-09-01T03:08:36;3.40;;;0.90;;
62413;SDS011;48453;52.322;21.058;2022-09-01T03:11:01;2.30;;;1.10;;
62413;SDS011;48453;52.322;21.058;2022-09-01T03:13:24;2.90;;;1.20;;
62413;SDS011;48453;52.322;21.058;2022-09-01T03:15:50;2.60;;;1.10;;
62413;SDS011;48453;52.322;21.058;2022-09-01T03:18:13;1.70;;;1.00;;
62413;SDS011;48453;52.322;21.058;2022-09-01T03:20:36;2.10;;;0.90;;
62413;SDS011;48453;52.322;21.058;2022-09-01T03:23:01;3.10;;;1.20;;
62413;SDS011;48453;52.322;21.058;2022-09-01T03:25:26;2.30;;;0.90;;
62413;SDS011;48453;52.322;21.058;2022-09-01T03:27:53;3.10;;;1.10;;
62413;SDS011;48453;52.322;21.058;2022-09-01T03:30:17;2.80;;;1.30;;
62413;SDS011;48453;52.322;21.058;2022-09-01T03:32:43;2.70;;;1.00;;
62413;SDS011;48453;52.322;21.058;2022-09-01T03:35:06;3.20;;;1.20;;
62413;SDS011;48453;52.322;21.058;2022-09-01T03:37:31;2.00;;;1.00;;
62413;SDS011;48453;52.322;21.058;2022-09-01T03:39:55;1.40;;;0.70;;
62413;SDS011;48453;52.322;21.058;2022-09-01T03:42:20;4.10;;;0.90;;
62413;SDS011;48453;52.322;21.058;2022-09-01T03:44:47;1.90;;;0.90;;
62413;SDS011;48453;52.322;21.058;2022-09-01T03:47:13;2.20;;;0.90;;
62413;SDS011;48453;52.322;21.058;2022-09-01T03:49:36;2.80;;;1.20;;
62413;SDS011;48453;52.322;21.058;2022-09-01T03:52:00;2.40;;;1.10;;
62413;SDS011;48453;52.322;21.058;2022-09-01T03:54:23;3.00;;;1.00;;
62413;SDS011;48453;52.322;21.058;2022-09-01T03:56:52;3.40;;;1.20;;
62413;SDS011;48453;52.322;21.058;2022-09-01T03:59:17;2.90;;;1.30;;
62413;SDS011;48453;52.322;21.058;2022-09-01T04:01:41;4.30;;;1.00;;
62413;SDS011;48453;52.322;21.058;2022-09-01T04:04:05;4.50;;;1.00;;
62413;SDS011;48453;52.322;21.058;2022-09-01T04:06:29;2.70;;;1.10;;
62413;SDS011;48453;52.322;21.058;2022-09-01T04:08:54;3.50;;;0.90;;
62413;SDS011;48453;52.322;21.058;2022-09-01T04:11:24;3.50;;;1.10;;
62413;SDS011;48453;52.322;21.058;2022-09-01T04:13:50;2.60;;;1.10;;
62413;SDS011;48453;52.322;21.058;2022-09-01T04:16:21;2.70;;;0.90;;
62413;SDS011;48453;52.322;21.058;2022-09-01T04:19:03;2.40;;;1.00;;
62413;SDS011;48453;52.322;21.058;2022-09-01T04:21:37;3.50;;;1.30;;
62413;SDS011;48453;52.322;21.058;2022-09-01T04:24:00;3.40;;;1.20;;
62413;SDS011;48453;52.322;21.058;2022-09-01T04:26:26;2.70;;;1.00;;
62413;SDS011;48453;52.322;21.058;2022-09-01T04:28:52;8.30;;;1.70;;
62413;SDS011;48453;52.322;21.058;2022-09-01T04:31:17;3.90;;;1.50;;
62413;SDS011;48453;52.322;21.058;2022-09-01T04:33:41;3.60;;;1.20;;
62413;SDS011;48453;52.322;21.058;2022-09-01T04:36:21;3.50;;;1.20;;
62413;SDS011;48453;52.322;21.058;2022-09-01T04:38:49;2.90;;;1.30;;
62413;SDS011;48453;52.322;21.058;2022-09-01T04:41:16;2.70;;;1.10;;
62413;SDS011;48453;52.322;21.058;2022-09-01T04:43:39;2.20;;;1.00;;
62413;SDS011;48453;52.322;21.058;2022-09-01T04:46:01;3.80;;;1.10;;
62413;SDS011;48453;52.322;21.058;2022-09-01T04:48:28;2.70;;;1.00;;
62413;SDS011;48453;52.322;21.058;2022-09-01T04:50:52;3.00;;;1.40;;
62413;SDS011;48453;52.322;21.058;2022-09-01T04:53:18;4.30;;;1.30;;
62413;SDS011;48453;52.322;21.058;2022-09-01T04:55:41;2.70;;;1.00;;
62413;SDS011;48453;52.322;21.058;2022-09-01T04:58:05;2.00;;;1.00;;
62413;SDS011;48453;52.322;21.058;2022-09-01T05:00:31;3.10;;;1.00;;
62413;SDS011;48453;52.322;21.058;2022-09-01T05:02:59;1.90;;;0.90;;
62413;SDS011;48453;52.322;21.058;2022-09-01T05:05:26;1.80;;;1.00;;
62413;SDS011;48453;52.322;21.058;2022-09-01T05:07:49;4.30;;;1.10;;
62413;SDS011;48453;52.322;21.058;2022-09-01T05:10:15;1.80;;;0.90;;
62413;SDS011;48453;52.322;21.058;2022-09-01T05:12:40;4.50;;;1.20;;
62413;SDS011;48453;52.322;21.058;2022-09-01T05:15:05;2.20;;;1.00;;
62413;SDS011;48453;52.322;21.058;2022-09-01T05:17:34;2.30;;;0.80;;
62413;SDS011;48453;52.322;21.058;2022-09-01T05:20:00;2.50;;;1.00;;
62413;SDS011;48453;52.322;21.058;2022-09-01T05:22:24;2.80;;;1.10;;
62413;SDS011;48453;52.322;21.058;2022-09-01T05:24:48;4.30;;;1.00;;
62413;SDS011;48453;52.322;21.058;2022-09-01T05:27:16;1.80;;;0.90;;
62413;SDS011;48453;52.322;21.058;2022-09-01T05:29:43;4.50;;;1.10;;
62413;SDS011;48453;52.322;21.058;2022-09-01T05:32:07;3.40;;;0.90;;
62413;SDS011;48453;52.322;21.058;2022-09-01T05:34:34;4.60;;;0.90;;
62413;SDS011;48453;52.322;21.058;2022-09-01T05:37:02;2.70;;;1.00;;
62413;SDS011;48453;52.322;21.058;2022-09-01T05:39:29;4.30;;;1.10;;
62413;SDS011;48453;52.322;21.058;2022-09-01T05:41:54;1.60;;;0.60;;
62413;SDS011;48453;52.322;21.058;2022-09-01T05:44:19;2.00;;;0.80;;
62413;SDS011;48453;52.322;21.058;2022-09-01T05:46:44;3.30;;;1.10;;
62413;SDS011;48453;52.322;21.058;2022-09-01T05:49:11;1.80;;;0.80;;
62413;SDS011;48453;52.322;21.058;2022-09-01T05:51:38;2.50;;;0.90;;
62413;SDS011;48453;52.322;21.058;2022-09-01T05:54:08;1.80;;;0.80;;
62413;SDS011;48453;52.322;21.058;2022-09-01T05:56:35;2.90;;;1.00;;
62413;SDS011;48453;52.322;21.058;2022-09-01T05:59:06;9.60;;;1.00;;
62413;SDS011;48453;52.322;21.058;2022-09-01T06:01:47;3.50;;;0.80;;
62413;SDS011;48453;52.322;21.058;2022-09-01T06:04:12;3.40;;;1.00;;
62413;SDS011;48453;52.322;21.058;2022-09-01T06:06:45;3.00;;;1.00;;
62413;SDS011;48453;52.322;21.058;2022-09-01T06:09:28;2.00;;;0.90;;
62413;SDS011;48453;52.322;21.058;2022-09-01T06:11:51;3.50;;;1.00;;
62413;SDS011;48453;52.322;21.058;2022-09-01T06:14:18;2.70;;;1.20;;
62413;SDS011;48453;52.322;21.058;2022-09-01T06:16:46;2.40;;;1.10;;
62413;SDS011;48453;52.322;21.058;2022-09-01T06:19:14;2.10;;;0.80;;
62413;SDS011;48453;52.322;21.058;2022-09-01T06:21:37;5.30;;;1.00;;
62413;SDS011;48453;52.322;21.058;2022-09-01T06:24:03;3.50;;;1.10;;
62413;SDS011;48453;52.322;21.058;2022-09-01T06:26:26;2.60;;;1.10;;
62413;SDS011;48453;52.322;21.058;2022-09-01T06:28:52;1.50;;;0.60;;
62413;SDS011;48453;52.322;21.058;2022-09-01T06:31:16;2.20;;;0.90;;
62413;SDS011;48453;52.322;21.058;2022-09-01T06:33:39;3.40;;;1.00;;
62413;SDS011;48453;52.322;21.058;2022-09-01T06:36:02;1.40;;;0.70;;
62413;SDS011;48453;52.322;21.058;2022-09-01T06:38:28;1.70;;;0.70;;
62413;SDS011;48453;52.322;21.058;2022-09-01T06:40:58;2.00;;;0.50;;
62413;SDS011;48453;52.322;21.058;2022-09-01T06:43:23;1.60;;;0.50;;
62413;SDS011;48453;52.322;21.058;2022-09-01T06:45:47;2.50;;;0.90;;
62413;SDS011;48453;52.322;21.058;2022-09-01T06:48:16;2.40;;;0.80;;
62413;SDS011;48453;52.322;21.058;2022-09-01T06:50:44;3.70;;;0.60;;
62413;SDS011;48453;52.322;21.058;2022-09-01T06:53:30;1.50;;;0.50;;
62413;SDS011;48453;52.322;21.058;2022-09-01T06:55:55;2.10;;;0.60;;
62413;SDS011;48453;52.322;21.058;2022-09-01T06:58:20;3.60;;;0.60;;
62413;SDS011;48453;52.322;21.058;2022-09-01T07:00:44;1.60;;;0.50;;
62413;SDS011;48453;52.322;21.058;2022-09-01T07:03:11;1.60;;;0.50;;
62413;SDS011;48453;52.322;21.058;2022-09-01T07:05:38;1.50;;;0.40;;
62413;SDS011;48453;52.322;21.058;2022-09-01T07:08:26;3.40;;;0.50;;
62413;SDS011;48453;52.322;21.058;2022-09-01T07:10:50;2.90;;;0.60;;
62413;SDS011;48453;52.322;21.058;2022-09-01T07:13:35;1.20;;;0.40;;
62413;SDS011;48453;52.322;21.058;2022-09-01T07:16:18;2.40;;;0.80;;
62413;SDS011;48453;52.322;21.058;2022-09-01T07:19:03;0.80;;;0.20;;
62413;SDS011;48453;52.322;21.058;2022-09-01T07:21:28;1.40;;;0.40;;
62413;SDS011;48453;52.322;21.058;2022-09-01T07:24:13;1.60;;;0.30;;
62413;SDS011;48453;52.322;21.058;2022-09-01T07:26:40;0.90;;;0.40;;
62413;SDS011;48453;52.322;21.058;2022-09-01T07:29:11;3.00;;;0.30;;
62413;SDS011;48453;52.322;21.058;2022-09-01T07:31:35;1.10;;;0.30;;
62413;SDS011;48453;52.322;21.058;2022-09-01T07:34:22;1.80;;;0.40;;
62413;SDS011;48453;52.322;21.058;2022-09-01T07:37:01;2.90;;;0.40;;
62413;SDS011;48453;52.322;21.058;2022-09-01T07:39:44;1.30;;;0.50;;
62413;SDS011;48453;52.322;21.058;2022-09-01T07:42:10;0.60;;;0.30;;
62413;SDS011;48453;52.322;21.058;2022-09-01T07:44:58;1.20;;;0.40;;
62413;SDS011;48453;52.322;21.058;2022-09-01T07:47:42;0.30;;;0.30;;
62413;SDS011;48453;52.322;21.058;2022-09-01T07:50:15;0.80;;;0.30;;
62413;SDS011;48453;52.322;21.058;2022-09-01T07:53:01;2.00;;;0.50;;
62413;SDS011;48453;52.322;21.058;2022-09-01T07:55:27;0.60;;;0.30;;
62413;SDS011;48453;52.322;21.058;2022-09-01T07:57:50;0.70;;;0.40;;
62413;SDS011;48453;52.322;21.058;2022-09-01T08:00:15;1.00;;;0.40;;
62413;SDS011;48453;52.322;21.058;2022-09-01T08:02:38;0.70;;;0.30;;
62413;SDS011;48453;52.322;21.058;2022-09-01T08:05:06;0.60;;;0.20;;
62413;SDS011;48453;52.322;21.058;2022-09-01T08:07:30;15.30;;;1.20;;
62413;SDS011;48453;52.322;21.058;2022-09-01T08:10:14;0.50;;;0.20;;
62413;SDS011;48453;52.322;21.058;2022-09-01T08:12:41;0.50;;;0.30;;
62413;SDS011;48453;52.322;21.058;2022-09-01T08:15:05;0.80;;;0.30;;
62413;SDS011;48453;52.322;21.058;2022-09-01T08:17:49;1.10;;;0.30;;
62413;SDS011;48453;52.322;21.058;2022-09-01T08:20:14;1.30;;;0.20;;
62413;SDS011;48453;52.322;21.058;2022-09-01T08:22:37;0.40;;;0.30;;
62413;SDS011;48453;52.322;21.058;2022-09-01T08:25:00;0.80;;;0.20;;
62413;SDS011;48453;52.322;21.058;2022-09-01T08:27:22;0.30;;;0.20;;
62413;SDS011;48453;52.322;21.058;2022-09-01T08:29:45;1.60;;;0.40;;
62413;SDS011;48453;52.322;21.058;2022-09-01T08:32:10;0.80;;;0.30;;
62413;SDS011;48453;52.322;21.058;2022-09-01T08:34:33;1.10;;;0.30;;
62413;SDS011;48453;52.322;21.058;2022-09-01T08:36:58;1.60;;;0.20;;
62413;SDS011;48453;52.322;21.058;2022-09-01T08:39:22;1.20;;;0.30;;
62413;SDS011;48453;52.322;21.058;2022-09-01T08:41:55;1.20;;;0.30;;
62413;SDS011;48453;52.322;21.058;2022-09-01T08:47:14;0.40;;;0.10;;
62413;SDS011;48453;52.322;21.058;2022-09-01T08:49:40;0.50;;;0.20;;
62413;SDS011;48453;52.322;21.058;2022-09-01T08:52:23;0.60;;;0.20;;
62413;SDS011;48453;52.322;21.058;2022-09-01T08:54:48;1.50;;;0.30;;
62413;SDS011;48453;52.322;21.058;2022-09-01T09:00:08;0.90;;;0.20;;
62413;SDS011;48453;52.322;21.058;2022-09-01T09:10:31;1.90;;;0.50;;
62413;SDS011;48453;52.322;21.058;2022-09-01T09:15:39;0.80;;;0.30;;
62413;SDS011;48453;52.322;21.058;2022-09-01T09:21:04;0.20;;;0.10;;
62413;SDS011;48453;52.322;21.058;2022-09-01T09:23:30;0.50;;;0.30;;
62413;SDS011;48453;52.322;21.058;2022-09-01T09:25:54;2.70;;;0.40;;
62413;SDS011;48453;52.322;21.058;2022-09-01T09:28:20;0.50;;;0.30;;
62413;SDS011;48453;52.322;21.058;2022-09-01T09:30:47;2.80;;;0.40;;
62413;SDS011;48453;52.322;21.058;2022-09-01T09:33:10;2.00;;;0.30;;
62413;SDS011;48453;52.322;21.058;2022-09-01T09:36:16;1.00;;;0.30;;
62413;SDS011;48453;52.322;21.058;2022-09-01T09:38:40;1.10;;;0.40;;
62413;SDS011;48453;52.322;21.058;2022-09-01T09:41:06;2.10;;;0.40;;
62413;SDS011;48453;52.322;21.058;2022-09-01T09:43:42;0.90;;;0.30;;
62413;SDS011;48453;52.322;21.058;2022-09-01T09:48:46;0.80;;;0.40;;
62413;SDS011;48453;52.322;21.058;2022-09-01T09:51:18;0.20;;;0.20;;
62413;SDS011;48453;52.322;21.058;2022-09-01T09:53:41;0.50;;;0.20;;
62413;SDS011;48453;52.322;21.058;2022-09-01T09:56:20;0.30;;;0.20;;
62413;SDS011;48453;52.322;21.058;2022-09-01T09:58:46;0.70;;;0.20;;
62413;SDS011;48453;52.322;21.058;2022-09-01T10:03:46;0.20;;;0.10;;
62413;SDS011;48453;52.322;21.058;2022-09-01T10:06:12;0.80;;;0.10;;
62413;SDS011;48453;52.322;21.058;2022-09-01T10:08:43;0.10;;;0.10;;
62413;SDS011;48453;52.322;21.058;2022-09-01T10:11:07;0.60;;;0.20;;
62413;SDS011;48453;52.322;21.058;2022-09-01T10:13:30;0.30;;;0.10;;
62413;SDS011;48453;52.322;21.058;2022-09-01T10:15:58;1.00;;;0.30;;
62413;SDS011;48453;52.322;21.058;2022-09-01T10:18:40;0.70;;;0.10;;
62413;SDS011;48453;52.322;21.058;2022-09-01T10:21:09;0.70;;;0.20;;
62413;SDS011;48453;52.322;21.058;2022-09-01T10:23:33;1.30;;;0.30;;
62413;SDS011;48453;52.322;21.058;2022-09-01T10:26:08;0.70;;;0.30;;
62413;SDS011;48453;52.322;21.058;2022-09-01T10:28:32;0.50;;;0.20;;
62413;SDS011;48453;52.322;21.058;2022-09-01T10:30:55;0.30;;;0.20;;
62413;SDS011;48453;52.322;21.058;2022-09-01T10:33:21;0.90;;;0.30;;
62413;SDS011;48453;52.322;21.058;2022-09-01T10:35:47;0.50;;;0.10;;
62413;SDS011;48453;52.322;21.058;2022-09-01T10:38:16;0.70;;;0.30;;
62413;SDS011;48453;52.322;21.058;2022-09-01T10:40:44;1.30;;;0.20;;
62413;SDS011;48453;52.322;21.058;2022-09-01T10:45:44;0.30;;;0.10;;
62413;SDS011;48453;52.322;21.058;2022-09-01T11:04:18;0.60;;;0.20;;
62413;SDS011;48453;52.322;21.058;2022-09-01T11:19:46;0.70;;;0.30;;
62413;SDS011;48453;52.322;21.058;2022-09-01T11:24:50;1.90;;;0.60;;
62413;SDS011;48453;52.322;21.058;2022-09-01T11:30:08;0.70;;;0.40;;
62413;SDS011;48453;52.322;21.058;2022-09-01T11:32:31;3.30;;;0.50;;
62413;SDS011;48453;52.322;21.058;2022-09-01T11:34:59;1.60;;;0.40;;
62413;SDS011;48453;52.322;21.058;2022-09-01T11:37:24;0.60;;;0.30;;
62413;SDS011;48453;52.322;21.058;2022-09-01T11:39:53;0.80;;;0.20;;
62413;SDS011;48453;52.322;21.058;2022-09-01T11:42:18;0.50;;;0.30;;
62413;SDS011;48453;52.322;21.058;2022-09-01T11:47:18;0.30;;;0.00;;
62413;SDS011;48453;52.322;21.058;2022-09-01T11:49:53;0.80;;;0.20;;
62413;SDS011;48453;52.322;21.058;2022-09-01T11:52:17;1.50;;;0.40;;
62413;SDS011;48453;52.322;21.058;2022-09-01T11:54:43;1.40;;;0.20;;
62413;SDS011;48453;52.322;21.058;2022-09-01T11:59:50;0.60;;;0.20;;
62413;SDS011;48453;52.322;21.058;2022-09-01T12:02:17;1.90;;;0.40;;
62413;SDS011;48453;52.322;21.058;2022-09-01T12:04:42;1.10;;;0.20;;
62413;SDS011;48453;52.322;21.058;2022-09-01T12:07:07;1.30;;;0.30;;
62413;SDS011;48453;52.322;21.058;2022-09-01T12:09:43;1.10;;;0.40;;
62413;SDS011;48453;52.322;21.058;2022-09-01T12:12:07;1.90;;;0.20;;
62413;SDS011;48453;52.322;21.058;2022-09-01T12:14:30;0.40;;;0.20;;
62413;SDS011;48453;52.322;21.058;2022-09-01T12:17:18;1.00;;;0.40;;
62413;SDS011;48453;52.322;21.058;2022-09-01T12:19:42;0.30;;;0.10;;
62413;SDS011;48453;52.322;21.058;2022-09-01T12:22:06;0.60;;;0.20;;
62413;SDS011;48453;52.322;21.058;2022-09-01T12:24:35;0.80;;;0.40;;
62413;SDS011;48453;52.322;21.058;2022-09-01T12:26:58;1.40;;;0.50;;
62413;SDS011;48453;52.322;21.058;2022-09-01T12:29:22;0.90;;;0.40;;
62413;SDS011;48453;52.322;21.058;2022-09-01T12:31:54;1.10;;;0.20;;
62413;SDS011;48453;52.322;21.058;2022-09-01T12:37:01;1.00;;;0.30;;
62413;SDS011;48453;52.322;21.058;2022-09-01T12:39:31;1.00;;;0.30;;
62413;SDS011;48453;52.322;21.058;2022-09-01T12:42:03;1.00;;;0.40;;
62413;SDS011;48453;52.322;21.058;2022-09-01T12:46:52;1.50;;;0.50;;
62413;SDS011;48453;52.322;21.058;2022-09-01T12:49:19;0.80;;;0.40;;
62413;SDS011;48453;52.322;21.058;2022-09-01T12:51:44;2.00;;;0.40;;
62413;SDS011;48453;52.322;21.058;2022-09-01T12:54:09;1.00;;;0.40;;
62413;SDS011;48453;52.322;21.058;2022-09-01T12:56:33;2.70;;;1.00;;
62413;SDS011;48453;52.322;21.058;2022-09-01T12:59:07;1.00;;;0.50;;
62413;SDS011;48453;52.322;21.058;2022-09-01T13:01:39;0.20;;;0.20;;
62413;SDS011;48453;52.322;21.058;2022-09-01T13:04:27;1.10;;;0.50;;
62413;SDS011;48453;52.322;21.058;2022-09-01T13:06:48;1.60;;;0.60;;
62413;SDS011;48453;52.322;21.058;2022-09-01T13:09:12;2.50;;;0.50;;
62413;SDS011;48453;52.322;21.058;2022-09-01T13:11:37;1.10;;;0.40;;
62413;SDS011;48453;52.322;21.058;2022-09-01T13:14:20;3.30;;;1.00;;
62413;SDS011;48453;52.322;21.058;2022-09-01T13:16:43;1.40;;;0.40;;
62413;SDS011;48453;52.322;21.058;2022-09-01T13:19:07;1.80;;;0.60;;
62413;SDS011;48453;52.322;21.058;2022-09-01T13:21:33;0.20;;;0.20;;
62413;SDS011;48453;52.322;21.058;2022-09-01T13:23:57;0.70;;;0.40;;
62413;SDS011;48453;52.322;21.058;2022-09-01T13:26:20;1.10;;;0.20;;
62413;SDS011;48453;52.322;21.058;2022-09-01T13:28:43;1.90;;;0.50;;
62413;SDS011;48453;52.322;21.058;2022-09-01T13:31:07;1.90;;;0.50;;
62413;SDS011;48453;52.322;21.058;2022-09-01T13:33:50;1.40;;;0.50;;
62413;SDS011;48453;52.322;21.058;2022-09-01T13:36:33;2.20;;;0.40;;
62413;SDS011;48453;52.322;21.058;2022-09-01T13:39:14;1.00;;;0.30;;
62413;SDS011;48453;52.322;21.058;2022-09-01T13:41:37;1.50;;;0.20;;
62413;SDS011;48453;52.322;21.058;2022-09-01T13:44:03;1.00;;;0.40;;
62413;SDS011;48453;52.322;21.058;2022-09-01T13:46:25;2.10;;;0.80;;
62413;SDS011;48453;52.322;21.058;2022-09-01T13:48:48;0.90;;;0.30;;
62413;SDS011;48453;52.322;21.058;2022-09-01T13:51:31;2.00;;;0.40;;
62413;SDS011;48453;52.322;21.058;2022-09-01T13:53:56;1.60;;;0.80;;
62413;SDS011;48453;52.322;21.058;2022-09-01T13:56:19;1.30;;;0.50;;
62413;SDS011;48453;52.322;21.058;2022-09-01T13:58:42;0.80;;;0.40;;
62413;SDS011;48453;52.322;21.058;2022-09-01T14:01:10;3.60;;;1.40;;
62413;SDS011;48453;52.322;21.058;2022-09-01T14:03:35;3.90;;;2.20;;
62413;SDS011;48453;52.322;21.058;2022-09-01T14:05:58;2.10;;;1.00;;
62413;SDS011;48453;52.322;21.058;2022-09-01T14:08:21;2.20;;;0.80;;
62413;SDS011;48453;52.322;21.058;2022-09-01T14:10:48;2.50;;;0.60;;
62413;SDS011;48453;52.322;21.058;2022-09-01T14:13:15;1.40;;;0.50;;
62413;SDS011;48453;52.322;21.058;2022-09-01T14:15:39;4.00;;;1.40;;
62413;SDS011;48453;52.322;21.058;2022-09-01T14:18:02;0.70;;;0.20;;
62413;SDS011;48453;52.322;21.058;2022-09-01T14:20:28;2.80;;;0.70;;
62413;SDS011;48453;52.322;21.058;2022-09-01T14:22:58;1.80;;;0.70;;
62413;SDS011;48453;52.322;21.058;2022-09-01T14:25:21;1.60;;;0.60;;
62413;SDS011;48453;52.322;21.058;2022-09-01T14:27:49;1.50;;;0.50;;
62413;SDS011;48453;52.322;21.058;2022-09-01T14:30:17;0.50;;;0.30;;
62413;SDS011;48453;52.322;21.058;2022-09-01T14:32:40;0.70;;;0.30;;
62413;SDS011;48453;52.322;21.058;2022-09-01T14:35:05;2.90;;;0.50;;
62413;SDS011;48453;52.322;21.058;2022-09-01T14:37:29;1.70;;;0.60;;
62413;SDS011;48453;52.322;21.058;2022-09-01T14:39:52;2.10;;;0.80;;
62413;SDS011;48453;52.322;21.058;2022-09-01T14:42:18;1.20;;;0.50;;
62413;SDS011;48453;52.322;21.058;2022-09-01T14:44:43;2.00;;;0.40;;
62413;SDS011;48453;52.322;21.058;2022-09-01T14:47:06;1.80;;;0.90;;
62413;SDS011;48453;52.322;21.058;2022-09-01T14:49:34;1.40;;;0.60;;
62413;SDS011;48453;52.322;21.058;2022-09-01T14:51:58;1.60;;;0.60;;
62413;SDS011;48453;52.322;21.058;2022-09-01T14:54:35;2.10;;;0.60;;
62413;SDS011;48453;52.322;21.058;2022-09-01T14:57:00;1.50;;;0.40;;
62413;SDS011;48453;52.322;21.058;2022-09-01T14:59:45;1.00;;;0.40;;
62413;SDS011;48453;52.322;21.058;2022-09-01T15:02:11;0.50;;;0.30;;
62413;SDS011;48453;52.322;21.058;2022-09-01T15:04:35;1.70;;;0.70;;
62413;SDS011;48453;52.322;21.058;2022-09-01T15:06:58;0.80;;;0.20;;
62413;SDS011;48453;52.322;21.058;2022-09-01T15:09:22;1.50;;;0.50;;
62413;SDS011;48453;52.322;21.058;2022-09-01T15:11:44;1.50;;;0.40;;
62413;SDS011;48453;52.322;21.058;2022-09-01T15:14:07;2.10;;;0.40;;
62413;SDS011;48453;52.322;21.058;2022-09-01T15:16:34;1.90;;;0.40;;
62413;SDS011;48453;52.322;21.058;2022-09-01T15:19:01;1.50;;;0.30;;
62413;SDS011;48453;52.322;21.058;2022-09-01T15:21:27;1.80;;;0.40;;
62413;SDS011;48453;52.322;21.058;2022-09-01T15:23:52;2.10;;;0.50;;
62413;SDS011;48453;52.322;21.058;2022-09-01T15:26:16;1.30;;;0.30;;
62413;SDS011;48453;52.322;21.058;2022-09-01T15:28:38;1.60;;;0.30;;
62413;SDS011;48453;52.322;21.058;2022-09-01T15:31:01;1.30;;;0.50;;
62413;SDS011;48453;52.322;21.058;2022-09-01T15:33:25;0.70;;;0.20;;
62413;SDS011;48453;52.322;21.058;2022-09-01T15:35:47;0.80;;;0.30;;
62413;SDS011;48453;52.322;21.058;2022-09-01T15:38:11;1.50;;;0.30;;
62413;SDS011;48453;52.322;21.058;2022-09-01T15:40:40;1.40;;;0.40;;
62413;SDS011;48453;52.322;21.058;2022-09-01T15:43:04;1.90;;;0.40;;
62413;SDS011;48453;52.322;21.058;2022-09-01T15:45:27;3.20;;;0.30;;
62413;SDS011;48453;52.322;21.058;2022-09-01T15:47:53;0.80;;;0.40;;
62413;SDS011;48453;52.322;21.058;2022-09-01T15:50:20;2.40;;;0.40;;